Time;durP1;ratioP1;P1;durP2;ratioP2;P2;SDS_P1;SDS_P2;PMS_P1;PMS_P2;Temp;Humidity;BMP_temperature;BMP_pressure;BME280_temperature;BME280_humidity;BME280_pressure;Samples;Min_cycle;Max_cycle;Signal;HPM_P1;HPM_P2
2021/06/21 00:00:57;;;;;;;4.35;3.15;;;23.20;94.40;;;;;;4992269;28;20042;-71
2021/06/21 00:03:23;;;;;;;4.00;3.35;;;23.10;94.30;;;;;;4992530;28;20019;-72
2021/06/21 00:05:49;;;;;;;3.95;2.83;;;23.10;94.30;;;;;;4992316;28;20092;-72
2021/06/21 00:08:15;;;;;;;3.70;3.17;;;23.10;94.30;;;;;;4992283;28;20034;-71
2021/06/21 00:10:42;;;;;;;4.05;2.75;;;23.10;94.30;;;;;;4992195;28;20386;-71
2021/06/21 00:13:08;;;;;;;5.53;3.03;;;23.10;94.30;;;;;;4992258;28;20057;-71
2021/06/21 00:15:33;;;;;;;4.43;3.13;;;23.10;94.30;;;;;;4990884;28;20054;-71
2021/06/21 00:17:59;;;;;;;3.25;2.95;;;23.10;94.30;;;;;;4991656;28;20035;-71
2021/06/21 00:20:26;;;;;;;3.58;3.10;;;23.10;94.30;;;;;;4990377;28;20046;-72
2021/06/21 00:22:53;;;;;;;5.40;3.30;;;23.10;94.30;;;;;;4992393;28;20026;-71
2021/06/21 00:25:20;;;;;;;4.40;3.03;;;23.10;94.30;;;;;;4992276;28;20096;-71
2021/06/21 00:27:47;;;;;;;3.53;2.55;;;23.10;94.30;;;;;;4991871;28;20517;-71
2021/06/21 00:30:15;;;;;;;4.30;3.08;;;23.10;94.30;;;;;;4991912;28;20036;-71
2021/06/21 00:32:43;;;;;;;6.78;3.60;;;23.10;94.30;;;;;;4991660;28;20023;-72
2021/06/21 00:35:10;;;;;;;4.18;2.75;;;23.10;94.30;;;;;;4991905;28;20030;-71
2021/06/21 00:37:36;;;;;;;3.50;2.72;;;23.10;94.40;;;;;;4991753;28;20027;-73
2021/06/21 00:40:05;;;;;;;4.40;2.85;;;23.10;94.70;;;;;;4991761;28;20045;-72
2021/06/21 00:42:32;;;;;;;4.35;3.15;;;23.10;94.60;;;;;;4991498;28;20513;-71
2021/06/21 00:44:58;;;;;;;4.78;2.85;;;23.10;94.70;;;;;;4991871;28;20034;-73
2021/06/21 00:47:23;;;;;;;3.47;2.92;;;23.10;94.70;;;;;;4991042;28;20056;-72
2021/06/21 00:49:49;;;;;;;4.60;3.10;;;23.10;94.90;;;;;;4991710;28;20042;-72
2021/06/21 00:52:17;;;;;;;7.85;3.70;;;23.10;95.10;;;;;;4991705;28;20026;-78
2021/06/21 00:54:44;;;;;;;4.30;3.40;;;23.10;95.40;;;;;;4991714;28;20367;-75
2021/06/21 00:57:11;;;;;;;3.85;2.65;;;23.10;95.60;;;;;;4991823;28;20031;-70
2021/06/21 00:59:36;;;;;;;4.93;3.10;;;23.10;95.70;;;;;;4991300;28;20035;-74
2021/06/21 01:02:02;;;;;;;3.97;2.80;;;23.10;95.60;;;;;;4991556;28;20045;-73
2021/06/21 01:04:28;;;;;;;3.80;2.67;;;23.10;95.70;;;;;;4991483;28;20030;-74
2021/06/21 01:06:54;;;;;;;5.50;3.25;;;23.10;95.70;;;;;;4994861;28;20089;-72
2021/06/21 01:09:20;;;;;;;4.32;3.05;;;23.10;95.70;;;;;;4995854;28;20478;-76
2021/06/21 01:12:25;;;;;;;3.95;2.97;;;23.10;95.80;;;;;;4995340;28;20105;-72
2021/06/21 01:15:02;;;;;;;5.00;3.70;;;23.10;95.80;;;;;;4971900;28;20038;-72
2021/06/21 01:17:50;;;;;;;3.63;3.00;;;23.10;95.80;;;;;;4995402;28;20030;-74
2021/06/21 01:20:30;;;;;;;4.45;3.22;;;23.10;95.90;;;;;;4995212;28;20042;-74
2021/06/21 01:23:09;;;;;;;5.13;3.38;;;23.10;95.90;;;;;;4995079;28;20030;-78
2021/06/21 01:25:43;;;;;;;3.60;3.17;;;23.10;95.80;;;;;;4995321;28;20170;-73
2021/06/21 01:28:34;;;;;;;3.83;2.80;;;23.10;95.80;;;;;;5026563;28;20402;-78
2021/06/21 01:31:23;;;;;;;4.63;3.08;;;23.10;95.80;;;;;;4995081;28;20027;-75
2021/06/21 01:33:51;;;;;;;5.07;3.22;;;23.10;95.80;;;;;;4995576;28;20023;-76
2021/06/21 01:36:19;;;;;;;4.10;2.80;;;23.10;95.70;;;;;;4995166;28;20027;-79
2021/06/21 01:38:59;;;;;;;5.45;3.40;;;23.10;95.70;;;;;;5026151;28;20482;-74
2021/06/21 01:41:30;;;;;;;3.78;3.00;;;23.10;95.70;;;;;;4994974;28;20034;-76
2021/06/21 01:43:58;;;;;;;4.47;3.03;;;23.10;95.70;;;;;;4987580;28;20391;-74
2021/06/21 01:46:29;;;;;;;5.90;3.15;;;23.10;95.70;;;;;;4975465;28;20031;-72
2021/06/21 01:49:00;;;;;;;5.10;3.53;;;23.00;95.60;;;;;;4975450;28;20015;-77
2021/06/21 01:51:29;;;;;;;5.40;3.28;;;23.10;95.70;;;;;;4975033;28;20509;-73
2021/06/21 01:53:58;;;;;;;5.53;3.25;;;23.10;95.60;;;;;;4993893;28;20025;-74
2021/06/21 01:56:29;;;;;;;3.55;2.70;;;23.00;95.60;;;;;;4980224;28;20162;-75
2021/06/21 01:58:56;;;;;;;4.13;2.78;;;23.00;95.60;;;;;;4973832;28;20027;-77
2021/06/21 02:01:23;;;;;;;3.80;3.22;;;23.00;95.60;;;;;;4975323;28;20047;-81
2021/06/21 02:03:52;;;;;;;5.88;3.35;;;23.00;95.60;;;;;;4975334;28;20483;-78
2021/06/21 02:06:19;;;;;;;5.78;3.03;;;23.00;95.60;;;;;;4974991;28;20031;-76
2021/06/21 02:08:48;;;;;;;5.00;3.17;;;23.00;95.60;;;;;;4974620;28;20106;-77
2021/06/21 02:11:15;;;;;;;3.55;2.95;;;23.00;95.60;;;;;;4974988;28;20510;-81
2021/06/21 02:13:42;;;;;;;3.78;2.85;;;23.00;95.60;;;;;;4978775;28;20037;-80
2021/06/21 02:16:08;;;;;;;4.82;3.22;;;23.00;95.60;;;;;;5009336;28;20445;-75
2021/06/21 02:18:35;;;;;;;5.03;2.92;;;22.90;95.60;;;;;;4994217;28;20026;-79
2021/06/21 02:21:02;;;;;;;3.97;2.70;;;22.90;95.60;;;;;;4993988;28;20129;-78
2021/06/21 02:23:28;;;;;;;5.45;3.30;;;22.90;95.60;;;;;;4994004;28;20398;-77
2021/06/21 02:25:57;;;;;;;6.38;3.33;;;23.00;95.60;;;;;;4994263;28;20035;-73
2021/06/21 02:28:26;;;;;;;4.57;2.70;;;23.00;95.60;;;;;;4989924;28;20522;-77
2021/06/21 02:30:53;;;;;;;5.35;3.00;;;23.00;95.60;;;;;;4974937;28;20023;-73
2021/06/21 02:33:19;;;;;;;3.13;2.78;;;22.90;95.60;;;;;;4974976;28;20050;-77
2021/06/21 02:35:46;;;;;;;4.30;2.90;;;23.00;95.60;;;;;;4974394;28;20086;-71
2021/06/21 02:38:12;;;;;;;5.13;3.30;;;23.00;95.60;;;;;;4974595;28;20072;-76
2021/06/21 02:40:38;;;;;;;4.97;3.03;;;23.00;95.60;;;;;;4973076;28;20034;-71
2021/06/21 02:43:04;;;;;;;4.18;3.03;;;22.90;95.50;;;;;;4974635;28;20178;-70
2021/06/21 02:45:31;;;;;;;4.28;3.40;;;23.00;95.60;;;;;;4992749;28;20530;-70
2021/06/21 02:47:57;;;;;;;3.40;2.47;;;23.00;95.60;;;;;;4993850;28;20505;-71
2021/06/21 02:50:23;;;;;;;5.13;3.15;;;22.90;95.60;;;;;;4994032;28;20034;-71
2021/06/21 02:53:00;;;;;;;4.32;2.70;;;22.90;95.60;;;;;;4993584;28;20015;-71
2021/06/21 02:55:48;;;;;;;5.68;3.08;;;22.90;95.50;;;;;;4993418;28;20441;-77
2021/06/21 02:58:24;;;;;;;4.47;3.10;;;22.90;95.60;;;;;;4993504;28;20034;-72
2021/06/21 03:00:53;;;;;;;5.30;3.13;;;22.90;95.50;;;;;;4993515;28;20109;-71
2021/06/21 03:03:24;;;;;;;5.07;3.10;;;22.90;95.90;;;;;;4993623;28;20018;-74
2021/06/21 03:05:51;;;;;;;5.78;3.15;;;22.90;95.50;;;;;;4992304;28;20427;-76
2021/06/21 03:08:21;;;;;;;5.18;3.53;;;22.90;95.50;;;;;;4993359;28;20022;-76
2021/06/21 03:10:48;;;;;;;4.72;3.22;;;22.90;95.50;;;;;;5008137;28;20048;-76
2021/06/21 03:13:17;;;;;;;4.22;3.17;;;22.90;95.50;;;;;;4992164;28;20058;-76
2021/06/21 03:15:43;;;;;;;5.40;3.53;;;22.90;95.50;;;;;;4973640;28;20035;-74
2021/06/21 03:18:10;;;;;;;4.60;3.22;;;22.90;95.50;;;;;;4973448;28;20034;-76
2021/06/21 03:20:36;;;;;;;4.63;3.25;;;22.90;95.50;;;;;;4973424;28;20506;-77
2021/06/21 03:23:04;;;;;;;4.80;3.30;;;22.90;95.50;;;;;;4973770;28;20471;-72
2021/06/21 03:25:31;;;;;;;4.05;2.90;;;22.90;95.60;;;;;;4973315;28;20117;-76
2021/06/21 03:28:05;;;;;;;5.70;3.42;;;22.90;95.50;;;;;;4988334;28;20046;-78
2021/06/21 03:30:31;;;;;;;6.43;3.58;;;22.90;95.60;;;;;;4973235;28;20034;-78
2021/06/21 03:32:56;;;;;;;4.60;3.80;;;22.80;95.50;;;;;;4973521;28;20027;-77
2021/06/21 03:35:22;;;;;;;4.35;3.92;;;22.90;95.60;;;;;;4973590;28;20019;-77
2021/06/21 03:37:48;;;;;;;4.47;3.22;;;22.90;95.50;;;;;;4973309;28;20031;-74
2021/06/21 03:40:14;;;;;;;3.45;3.10;;;22.90;95.60;;;;;;4973045;28;20094;-74
2021/06/21 03:42:40;;;;;;;3.80;3.25;;;22.80;95.50;;;;;;4973027;28;20034;-77
2021/06/21 03:45:09;;;;;;;4.95;3.22;;;22.80;95.50;;;;;;4988098;28;20038;-72
2021/06/21 03:47:37;;;;;;;5.15;3.47;;;22.90;95.50;;;;;;4992029;28;20544;-75
2021/06/21 03:50:04;;;;;;;4.78;3.80;;;22.80;95.50;;;;;;5024018;28;20030;-78
2021/06/21 03:52:29;;;;;;;3.85;3.47;;;22.90;95.50;;;;;;4992379;28;20451;-78
2021/06/21 03:55:08;;;;;;;5.00;3.60;;;22.80;95.50;;;;;;4992468;28;20070;-71
2021/06/21 03:57:38;;;;;;;5.32;3.50;;;22.80;95.50;;;;;;4992335;28;20109;-77
2021/06/21 04:00:14;;;;;;;4.75;3.92;;;22.80;95.50;;;;;;4992223;28;20102;-76
2021/06/21 04:02:40;;;;;;;6.22;3.42;;;22.80;95.50;;;;;;4992032;28;20585;-72
2021/06/21 04:05:07;;;;;;;5.38;3.47;;;22.80;95.60;;;;;;4992199;28;20101;-76
2021/06/21 04:07:33;;;;;;;5.35;3.85;;;22.80;95.50;;;;;;4991849;28;20030;-71
2021/06/21 04:09:58;;;;;;;4.22;3.78;;;22.80;95.50;;;;;;4992185;28;20054;-73
2021/06/21 04:12:25;;;;;;;3.67;3.35;;;22.80;95.60;;;;;;4992007;28;20454;-71
2021/06/21 04:14:52;;;;;;;7.45;4.50;;;22.80;95.60;;;;;;4976604;28;20487;-74
2021/06/21 04:17:17;;;;;;;4.28;3.75;;;22.80;95.50;;;;;;4972813;28;20098;-77
2021/06/21 04:19:43;;;;;;;4.45;3.35;;;22.80;95.50;;;;;;4970867;28;20964;-77
2021/06/21 04:22:09;;;;;;;4.95;3.60;;;22.80;95.50;;;;;;4972339;28;20023;-76
2021/06/21 04:24:35;;;;;;;4.22;3.72;;;22.80;95.50;;;;;;4984109;28;20038;-72
2021/06/21 04:27:00;;;;;;;4.75;3.75;;;22.80;95.50;;;;;;4992126;28;20023;-71
2021/06/21 04:29:26;;;;;;;3.92;3.38;;;22.80;95.50;;;;;;4991697;28;20109;-74
2021/06/21 04:31:52;;;;;;;5.10;3.90;;;22.80;95.50;;;;;;4992272;28;20033;-73
2021/06/21 04:34:18;;;;;;;4.97;3.90;;;22.80;95.50;;;;;;4992053;28;20541;-71
2021/06/21 04:36:44;;;;;;;7.05;3.55;;;22.80;95.50;;;;;;4990415;28;20132;-72
2021/06/21 04:39:09;;;;;;;4.38;3.35;;;22.80;95.50;;;;;;4991863;28;20049;-71
2021/06/21 04:41:35;;;;;;;5.07;3.38;;;22.80;95.60;;;;;;4990848;28;20037;-70
2021/06/21 04:44:01;;;;;;;5.90;4.00;;;22.80;95.60;;;;;;4981586;28;20030;-70
2021/06/21 04:46:29;;;;;;;4.38;3.38;;;22.80;95.60;;;;;;4970813;28;20026;-70
2021/06/21 04:48:56;;;;;;;4.22;3.08;;;22.80;95.60;;;;;;4972435;28;20063;-71
2021/06/21 04:51:22;;;;;;;4.75;3.78;;;22.80;95.60;;;;;;4972382;28;20541;-71
2021/06/21 04:53:48;;;;;;;5.50;3.92;;;22.80;95.60;;;;;;4972174;28;20031;-70
2021/06/21 04:56:15;;;;;;;4.68;3.95;;;22.80;95.60;;;;;;4972652;28;20454;-72
2021/06/21 04:58:41;;;;;;;4.45;3.55;;;22.70;95.60;;;;;;4972228;28;20039;-71
2021/06/21 05:01:07;;;;;;;3.58;3.28;;;22.70;95.50;;;;;;4972956;28;20043;-70
2021/06/21 05:03:35;;;;;;;4.05;3.45;;;22.70;95.50;;;;;;4972168;28;20062;-71
2021/06/21 05:06:00;;;;;;;4.05;3.40;;;22.70;95.60;;;;;;4972229;28;20027;-70
2021/06/21 05:08:27;;;;;;;5.57;3.35;;;22.70;95.50;;;;;;4972214;28;20027;-71
2021/06/21 05:10:52;;;;;;;3.85;3.45;;;22.70;95.50;;;;;;4991836;28;20116;-71
2021/06/21 05:13:18;;;;;;;5.38;3.60;;;22.70;95.50;;;;;;4991433;28;20110;-70
2021/06/21 05:15:43;;;;;;;6.38;3.58;;;22.70;95.60;;;;;;4991396;28;20022;-71
2021/06/21 05:18:09;;;;;;;3.63;3.28;;;22.70;95.60;;;;;;4991402;28;20445;-71
2021/06/21 05:20:35;;;;;;;3.80;2.95;;;22.70;95.50;;;;;;4991229;28;20514;-72
2021/06/21 05:23:00;;;;;;;4.50;3.40;;;22.70;95.60;;;;;;4991533;28;20019;-73
2021/06/21 05:25:26;;;;;;;4.22;3.00;;;22.70;95.60;;;;;;4990164;28;20029;-70
2021/06/21 05:27:52;;;;;;;3.78;3.20;;;22.70;95.60;;;;;;4991836;28;20026;-71
2021/06/21 05:30:18;;;;;;;3.60;3.22;;;22.70;95.60;;;;;;4991130;28;20035;-71
2021/06/21 05:32:44;;;;;;;3.85;3.42;;;22.70;95.60;;;;;;4991241;28;20022;-77
2021/06/21 05:35:11;;;;;;;3.40;3.10;;;22.70;95.60;;;;;;4991120;28;20034;-71
2021/06/21 05:37:37;;;;;;;4.28;3.50;;;22.70;95.60;;;;;;4991101;28;20486;-73
2021/06/21 05:40:04;;;;;;;5.18;3.35;;;22.70;95.60;;;;;;4991501;28;20034;-72
2021/06/21 05:42:30;;;;;;;3.30;3.00;;;22.70;95.60;;;;;;4990393;28;20022;-71
2021/06/21 05:44:55;;;;;;;3.13;2.60;;;22.70;95.60;;;;;;4991145;28;20033;-71
2021/06/21 05:47:21;;;;;;;3.67;3.03;;;22.70;95.60;;;;;;4991348;28;20402;-71
2021/06/21 05:49:47;;;;;;;3.22;2.80;;;22.70;95.60;;;;;;4990619;28;20030;-71
2021/06/21 05:52:12;;;;;;;3.90;2.85;;;22.70;95.60;;;;;;4992913;28;20022;-72
2021/06/21 05:54:38;;;;;;;3.65;3.00;;;22.70;95.60;;;;;;4994463;28;20025;-71
2021/06/21 05:57:05;;;;;;;4.38;3.00;;;22.70;95.60;;;;;;4994635;28;20371;-71
2021/06/21 05:59:30;;;;;;;3.40;2.80;;;22.70;95.60;;;;;;4994225;28;20398;-71
2021/06/21 06:01:56;;;;;;;4.10;3.40;;;22.70;95.60;;;;;;4994000;28;20101;-71
2021/06/21 06:04:22;;;;;;;3.83;2.83;;;22.70;95.60;;;;;;4994791;28;20018;-71
2021/06/21 06:06:47;;;;;;;3.35;2.80;;;22.70;95.60;;;;;;4994317;28;20026;-71
2021/06/21 06:09:13;;;;;;;3.85;2.85;;;22.70;95.60;;;;;;4994015;28;20058;-71
2021/06/21 06:11:39;;;;;;;3.20;2.53;;;22.60;95.60;;;;;;4993640;28;20495;-72
2021/06/21 06:14:04;;;;;;;2.97;2.42;;;22.70;95.60;;;;;;4992483;28;20069;-72
2021/06/21 06:16:30;;;;;;;3.67;3.00;;;22.60;95.60;;;;;;5001301;28;20045;-71
2021/06/21 06:18:56;;;;;;;3.92;3.28;;;22.60;95.60;;;;;;4997083;28;20502;-71
2021/06/21 06:21:21;;;;;;;2.80;2.60;;;22.70;95.70;;;;;;4993632;28;20494;-70
2021/06/21 06:23:47;;;;;;;4.18;3.63;;;22.60;95.90;;;;;;4993195;28;20031;-70
2021/06/21 06:26:13;;;;;;;4.45;3.13;;;22.50;96.10;;;;;;4994291;28;20393;-70
2021/06/21 06:28:39;;;;;;;3.03;2.60;;;22.50;96.10;;;;;;4993864;28;20026;-69
2021/06/21 06:31:05;;;;;;;3.10;2.80;;;22.50;96.10;;;;;;4993930;28;20034;-70
2021/06/21 06:33:31;;;;;;;4.28;3.40;;;22.50;96.10;;;;;;4993318;28;20022;-70
2021/06/21 06:35:57;;;;;;;3.80;3.17;;;22.50;96.20;;;;;;4993539;28;20034;-72
2021/06/21 06:38:23;;;;;;;4.53;3.25;;;22.50;96.30;;;;;;4993852;28;20034;-75
2021/06/21 06:40:49;;;;;;;4.35;3.70;;;22.50;96.20;;;;;;4993517;28;20121;-72
2021/06/21 06:43:14;;;;;;;5.35;2.95;;;22.50;96.30;;;;;;4993082;28;20389;-69
2021/06/21 06:45:40;;;;;;;3.58;3.03;;;22.60;96.30;;;;;;4992942;28;20478;-69
2021/06/21 06:48:06;;;;;;;6.45;3.40;;;22.60;96.40;;;;;;4992319;28;20022;-69
2021/06/21 06:50:32;;;;;;;5.32;3.67;;;22.60;96.30;;;;;;4992129;28;20070;-72
2021/06/21 06:52:58;;;;;;;7.05;3.53;;;22.60;96.30;;;;;;4992272;28;20026;-70
2021/06/21 06:58:08;;;;;;;6.93;4.72;;;22.60;96.50;;;;;;4991751;28;20089;-73
2021/06/21 07:00:35;;;;;;;6.65;3.95;;;22.50;96.70;;;;;;4992340;28;20505;-79
2021/06/21 07:03:01;;;;;;;4.78;4.10;;;22.50;97.00;;;;;;4991385;28;20027;-71
2021/06/21 07:05:27;;;;;;;6.40;4.35;;;22.50;96.90;;;;;;4992362;28;20106;-70
2021/06/21 07:07:57;;;;;;;6.40;4.20;;;22.50;96.90;;;;;;4991789;28;20061;-74
2021/06/21 07:10:23;;;;;;;5.65;4.60;;;22.50;97.00;;;;;;4990032;28;20022;-76
2021/06/21 07:12:49;;;;;;;10.35;5.07;;;22.50;97.00;;;;;;4992092;28;20019;-71
2021/06/21 07:15:15;;;;;;;7.03;4.63;;;22.50;97.10;;;;;;4993180;28;20018;-72
2021/06/21 07:17:41;;;;;;;6.18;4.65;;;22.40;97.10;;;;;;4993122;28;20109;-74
2021/06/21 07:20:07;;;;;;;7.45;4.55;;;22.40;97.10;;;;;;4992880;28;20204;-70
2021/06/21 07:22:33;;;;;;;5.22;4.57;;;22.40;97.10;;;;;;4990833;28;20060;-70
2021/06/21 07:24:59;;;;;;;5.15;4.65;;;22.50;97.50;;;;;;5013888;28;20394;-71
2021/06/21 07:27:26;;;;;;;5.35;4.85;;;22.50;97.10;;;;;;4991307;28;20390;-72
2021/06/21 07:29:53;;;;;;;6.90;5.40;;;22.40;97.20;;;;;;4991592;28;20023;-76
2021/06/21 07:32:19;;;;;;;5.55;4.93;;;22.50;97.60;;;;;;4991157;28;20034;-71
2021/06/21 07:34:45;;;;;;;4.40;4.00;;;22.60;97.00;;;;;;4991380;28;20080;-70
2021/06/21 07:37:11;;;;;;;4.88;4.25;;;22.50;97.00;;;;;;4991240;28;20069;-82
2021/06/21 07:39:37;;;;;;;4.93;4.30;;;22.50;97.00;;;;;;4992338;28;20117;-77
2021/06/21 07:42:04;;;;;;;5.03;4.53;;;22.50;97.00;;;;;;4992936;28;20042;-78
2021/06/21 07:44:30;;;;;;;4.82;4.18;;;22.50;96.90;;;;;;4991929;28;20033;-80
2021/06/21 07:46:56;;;;;;;6.03;4.10;;;22.50;96.70;;;;;;4991950;28;20036;-79
2021/06/21 07:49:22;;;;;;;5.63;3.95;;;22.50;96.60;;;;;;4993403;28;20022;-81
2021/06/21 07:51:47;;;;;;;4.43;4.03;;;22.50;96.60;;;;;;4991161;28;20476;-77
2021/06/21 07:54:14;;;;;;;3.90;3.53;;;22.50;96.80;;;;;;4992803;28;20539;-79
2021/06/21 07:56:40;;;;;;;6.90;3.83;;;22.50;96.90;;;;;;4991241;28;20027;-80
2021/06/21 07:59:06;;;;;;;5.18;3.97;;;22.50;96.70;;;;;;4992425;28;20109;-77
2021/06/21 08:01:32;;;;;;;3.92;3.50;;;22.50;96.70;;;;;;4991700;28;20117;-80
2021/06/21 08:03:57;;;;;;;8.13;3.63;;;22.40;96.50;;;;;;4987201;28;20118;-76
2021/06/21 08:06:24;;;;;;;6.25;3.28;;;22.50;96.60;;;;;;4990964;28;20038;-79
2021/06/21 08:08:50;;;;;;;3.53;3.20;;;22.50;96.60;;;;;;4992598;28;20018;-73
2021/06/21 08:11:15;;;;;;;3.85;3.03;;;22.50;96.40;;;;;;4991782;28;20492;-73
2021/06/21 08:13:41;;;;;;;3.30;3.00;;;22.50;96.40;;;;;;4991459;28;20037;-83
2021/06/21 08:16:07;;;;;;;3.55;3.00;;;22.50;96.30;;;;;;4992066;28;20058;-83
2021/06/21 08:18:33;;;;;;;3.53;2.80;;;22.50;96.30;;;;;;4991847;28;20483;-80
2021/06/21 08:21:00;;;;;;;5.95;3.70;;;22.50;96.20;;;;;;4992020;28;20034;-82
2021/06/21 08:23:26;;;;;;;3.30;3.00;;;22.50;96.20;;;;;;4991775;28;20199;-83
2021/06/21 08:25:51;;;;;;;4.78;3.05;;;22.50;96.20;;;;;;4992154;28;20395;-80
2021/06/21 08:28:17;;;;;;;3.25;2.95;;;22.50;96.20;;;;;;4992022;28;20061;-83
2021/06/21 08:30:46;;;;;;;4.25;3.30;;;22.40;96.10;;;;;;4991559;28;20034;-83
2021/06/21 08:33:12;;;;;;;4.80;3.30;;;22.50;96.10;;;;;;4972736;28;20054;-82
2021/06/21 08:35:38;;;;;;;3.35;3.05;;;22.50;96.10;;;;;;4972197;28;20466;-83
2021/06/21 08:38:04;;;;;;;3.47;3.17;;;22.50;96.10;;;;;;4972717;28;20479;-78
2021/06/21 08:40:33;;;;;;;3.38;3.00;;;22.50;96.00;;;;;;4978063;28;20045;-83
2021/06/21 08:42:59;;;;;;;4.75;3.28;;;22.50;96.10;;;;;;4991832;28;20422;-81
2021/06/21 08:45:26;;;;;;;3.88;3.08;;;22.50;96.00;;;;;;4991775;28;20030;-82
2021/06/21 08:47:53;;;;;;;3.08;2.78;;;22.50;96.00;;;;;;4992265;28;20022;-81
2021/06/21 08:50:19;;;;;;;3.10;2.80;;;22.50;95.90;;;;;;4991339;28;20102;-83
2021/06/21 08:52:45;;;;;;;3.50;3.20;;;22.50;95.90;;;;;;5005973;28;20085;-81
2021/06/21 08:55:12;;;;;;;3.30;2.92;;;22.50;95.90;;;;;;4991436;28;20030;-82
2021/06/21 08:57:42;;;;;;;3.58;3.20;;;22.50;95.80;;;;;;4991188;28;20015;-83
2021/06/21 09:00:09;;;;;;;3.28;2.97;;;22.50;95.80;;;;;;4994413;28;20065;-80
2021/06/21 09:02:36;;;;;;;3.85;3.45;;;22.50;95.80;;;;;;5006285;28;20498;-84
2021/06/21 09:05:06;;;;;;;4.00;3.38;;;22.50;95.80;;;;;;4991434;28;20073;-83
2021/06/21 09:07:32;;;;;;;3.90;3.35;;;22.50;95.70;;;;;;4991145;28;20030;-83
2021/06/21 09:09:59;;;;;;;4.28;3.05;;;22.50;95.70;;;;;;4991686;28;20076;-83
2021/06/21 09:12:27;;;;;;;3.80;3.25;;;22.50;95.70;;;;;;4991262;28;20077;-79
2021/06/21 09:14:57;;;;;;;3.38;3.05;;;22.50;95.70;;;;;;4991986;28;20041;-84
2021/06/21 09:17:28;;;;;;;3.60;3.20;;;22.50;95.70;;;;;;4991478;28;20465;-84
2021/06/21 09:20:00;;;;;;;3.40;3.10;;;22.50;95.70;;;;;;4991292;28;20494;-74
2021/06/21 09:22:27;;;;;;;4.05;3.40;;;22.50;95.70;;;;;;4989976;28;20022;-76
2021/06/21 09:24:58;;;;;;;4.63;3.35;;;22.40;95.60;;;;;;4991811;28;20156;-73
2021/06/21 09:27:24;;;;;;;4.53;3.33;;;22.50;95.60;;;;;;4993955;28;20014;-82
2021/06/21 09:29:52;;;;;;;3.83;3.50;;;22.50;95.60;;;;;;4994852;28;20517;-79
2021/06/21 09:32:19;;;;;;;3.40;3.10;;;22.50;95.60;;;;;;4995112;28;20054;-80
2021/06/21 09:34:44;;;;;;;4.32;3.50;;;22.50;95.50;;;;;;4994706;28;20034;-79
2021/06/21 09:37:18;;;;;;;5.93;3.72;;;22.50;95.50;;;;;;4995181;28;20036;-75
2021/06/21 09:39:45;;;;;;;3.45;3.15;;;22.50;95.50;;;;;;4994486;28;20360;-76
2021/06/21 09:42:23;;;;;;;4.57;3.35;;;22.50;95.50;;;;;;4994626;28;20037;-76
2021/06/21 09:44:57;;;;;;;5.28;3.45;;;22.50;95.50;;;;;;4995266;28;20022;-73
2021/06/21 09:47:41;;;;;;;4.18;3.05;;;22.50;95.50;;;;;;4994123;28;20081;-74
2021/06/21 09:50:16;;;;;;;3.85;3.40;;;22.50;95.50;;;;;;4994992;28;20037;-73
2021/06/21 09:52:43;;;;;;;3.53;3.22;;;22.50;95.50;;;;;;4993294;28;20026;-79
2021/06/21 09:55:18;;;;;;;4.60;3.60;;;22.50;95.40;;;;;;4994365;28;20026;-75
2021/06/21 09:57:45;;;;;;;3.70;3.28;;;22.50;95.40;;;;;;4994266;28;20401;-80
2021/06/21 10:00:13;;;;;;;4.63;3.42;;;22.50;95.40;;;;;;4999325;28;20037;-72
2021/06/21 10:02:40;;;;;;;3.95;3.55;;;22.50;95.40;;;;;;5014040;28;20057;-74
2021/06/21 10:05:21;;;;;;;3.60;3.30;;;22.50;95.40;;;;;;5007786;28;20120;-73
2021/06/21 10:07:47;;;;;;;4.55;3.30;;;22.50;95.30;;;;;;4994195;28;20072;-73
2021/06/21 10:10:18;;;;;;;4.30;3.53;;;22.50;95.30;;;;;;4994525;28;20030;-74
2021/06/21 10:12:44;;;;;;;8.10;3.42;;;22.50;95.30;;;;;;4987186;28;20372;-74
2021/06/21 10:15:12;;;;;;;3.33;3.03;;;22.50;95.40;;;;;;4992159;28;20026;-81
2021/06/21 10:17:37;;;;;;;4.43;3.20;;;22.50;95.30;;;;;;5005678;28;20034;-78
2021/06/21 10:20:05;;;;;;;4.05;2.85;;;22.50;95.30;;;;;;4991066;28;20544;-79
2021/06/21 10:22:31;;;;;;;5.43;2.85;;;22.50;95.30;;;;;;5015485;28;20126;-79
2021/06/21 10:24:58;;;;;;;3.13;2.83;;;22.60;95.30;;;;;;4992792;28;20110;-75
2021/06/21 10:27:26;;;;;;;2.92;2.72;;;22.60;95.30;;;;;;4991711;28;20019;-72
2021/06/21 10:29:55;;;;;;;4.88;2.78;;;22.60;95.30;;;;;;4992119;28;20028;-71
2021/06/21 10:32:21;;;;;;;3.75;2.92;;;22.60;95.40;;;;;;4992920;28;20504;-74
2021/06/21 10:34:48;;;;;;;2.83;2.60;;;22.60;95.40;;;;;;4992548;28;20030;-72
2021/06/21 10:37:20;;;;;;;3.28;2.67;;;22.50;95.40;;;;;;4993751;28;20053;-74
2021/06/21 10:39:50;;;;;;;3.72;3.28;;;22.50;95.40;;;;;;4990607;28;20069;-77
2021/06/21 10:42:26;;;;;;;4.20;3.40;;;22.50;95.50;;;;;;4993224;28;20026;-73
2021/06/21 10:44:58;;;;;;;6.50;3.70;;;22.50;95.60;;;;;;4984211;28;20099;-74
2021/06/21 10:47:28;;;;;;;6.65;3.58;;;22.50;95.70;;;;;;4978021;28;20068;-77
2021/06/21 10:50:14;;;;;;;7.78;3.42;;;22.60;95.80;;;;;;5008126;28;20026;-78
2021/06/21 10:52:54;;;;;;;10.23;3.83;;;22.60;96.40;;;;;;5008682;28;20390;-79
2021/06/21 10:55:20;;;;;;;5.85;3.60;;;22.60;96.30;;;;;;4992773;28;20510;-77
2021/06/21 10:58:00;;;;;;;8.13;4.88;;;22.60;96.40;;;;;;4993616;28;20031;-74
2021/06/21 11:00:38;;;;;;;7.57;4.95;;;22.70;96.70;;;;;;4988464;28;20050;-77
2021/06/21 11:03:22;;;;;;;7.45;5.18;;;22.70;96.90;;;;;;4976705;28;20050;-77
2021/06/21 11:05:48;;;;;;;9.52;4.88;;;22.70;97.20;;;;;;4973694;28;20033;-78
2021/06/21 11:08:18;;;;;;;6.55;4.68;;;22.70;97.30;;;;;;4989043;28;20117;-73
2021/06/21 11:10:46;;;;;;;7.38;5.00;;;22.70;97.50;;;;;;5004955;28;20039;-73
2021/06/21 11:13:36;;;;;;;9.38;5.57;;;22.70;97.60;;;;;;4988639;28;20069;-74
2021/06/21 11:16:19;;;;;;;11.68;6.35;;;22.70;97.80;;;;;;4990319;28;20065;-74
2021/06/21 11:19:16;;;;;;;9.30;5.22;;;22.70;98.10;;;;;;4992474;28;20037;-73
2021/06/21 11:21:47;;;;;;;19.48;7.85;;;22.80;98.00;;;;;;4989037;28;20054;-72
2021/06/21 11:24:35;;;;;;;15.75;6.80;;;22.80;97.90;;;;;;4992522;28;20395;-73
2021/06/21 11:27:09;;;;;;;13.52;7.88;;;22.80;97.80;;;;;;4984206;28;20073;-72
2021/06/21 11:29:40;;;;;;;19.63;7.75;;;22.80;97.90;;;;;;4992254;28;20019;-73
2021/06/21 11:32:07;;;;;;;21.77;8.88;;;22.80;97.80;;;;;;4992438;28;20042;-73
2021/06/21 11:34:57;;;;;;;25.30;9.43;;;22.80;98.60;;;;;;4992970;28;20053;-70
2021/06/21 11:37:38;;;;;;;29.55;8.85;;;22.80;98.80;;;;;;4973882;28;20124;-73
2021/06/21 11:40:18;;;;;;;15.25;7.63;;;22.80;98.40;;;;;;4982781;28;20121;-73
2021/06/21 11:43:02;;;;;;;19.80;7.13;;;22.80;97.70;;;;;;4992132;28;20384;-73
2021/06/21 11:45:52;;;;;;;13.23;6.18;;;22.80;97.80;;;;;;4991876;28;20054;-73
2021/06/21 11:48:21;;;;;;;13.27;5.55;;;22.80;97.70;;;;;;5007782;28;20022;-74
2021/06/21 11:50:47;;;;;;;13.07;5.03;;;22.70;97.50;;;;;;4992143;28;20495;-73
2021/06/21 11:53:13;;;;;;;13.13;6.03;;;22.70;97.40;;;;;;4992838;28;20069;-74
2021/06/21 11:55:38;;;;;;;15.77;5.30;;;22.70;97.40;;;;;;4991514;28;20546;-73
2021/06/21 11:58:04;;;;;;;12.52;5.15;;;22.70;97.30;;;;;;4991922;28;20062;-73
2021/06/21 12:00:33;;;;;;;13.27;5.15;;;22.70;97.30;;;;;;4990431;28;20125;-74
2021/06/21 12:03:08;;;;;;;9.98;5.00;;;22.70;97.20;;;;;;4992106;28;20101;-73
2021/06/21 12:05:34;;;;;;;10.73;4.80;;;22.70;97.00;;;;;;4992034;28;20106;-73
2021/06/21 12:08:10;;;;;;;11.85;4.20;;;22.70;97.10;;;;;;4992162;28;20744;-77
2021/06/21 12:10:36;;;;;;;8.55;4.70;;;22.70;96.90;;;;;;4994985;28;20030;-74
2021/06/21 12:13:02;;;;;;;9.77;4.70;;;22.70;96.90;;;;;;4990125;28;20453;-74
2021/06/21 12:15:33;;;;;;;6.88;4.88;;;22.70;97.00;;;;;;4992191;28;20073;-78
2021/06/21 12:18:00;;;;;;;6.15;3.85;;;22.70;96.90;;;;;;4992387;28;20478;-74
2021/06/21 12:20:26;;;;;;;8.13;4.15;;;22.70;96.80;;;;;;4991880;28;20030;-74
2021/06/21 12:23:03;;;;;;;8.10;4.40;;;22.70;96.70;;;;;;4992624;28;20477;-75
2021/06/21 12:25:40;;;;;;;9.20;4.32;;;22.70;96.70;;;;;;4991067;28;20037;-78
2021/06/21 12:28:25;;;;;;;7.20;3.70;;;22.70;96.60;;;;;;4991353;28;20057;-74
2021/06/21 12:31:01;;;;;;;7.80;3.58;;;22.70;96.60;;;;;;4992359;28;20030;-75
2021/06/21 12:33:36;;;;;;;6.60;3.45;;;22.70;96.60;;;;;;4991661;28;20105;-78
2021/06/21 12:36:17;;;;;;;7.80;3.47;;;22.70;96.50;;;;;;4991987;28;20077;-78
2021/06/21 12:38:56;;;;;;;6.40;3.22;;;22.70;96.50;;;;;;4991772;28;20030;-78
2021/06/21 12:41:33;;;;;;;7.88;3.78;;;22.70;96.50;;;;;;4992204;28;20568;-78
2021/06/21 12:44:03;;;;;;;4.93;3.03;;;22.70;96.40;;;;;;4991969;28;20041;-77
2021/06/21 12:46:35;;;;;;;6.65;3.67;;;22.70;96.40;;;;;;4991727;28;20023;-75
2021/06/21 12:49:09;;;;;;;6.50;4.47;;;22.60;96.40;;;;;;5006802;28;20053;-78
2021/06/21 12:51:36;;;;;;;6.45;3.55;;;22.70;96.40;;;;;;4991029;28;20050;-75
2021/06/21 12:54:04;;;;;;;6.63;3.63;;;22.70;96.40;;;;;;5000460;28;20565;-73
2021/06/21 12:56:34;;;;;;;5.63;3.08;;;22.70;96.40;;;;;;4991401;28;20096;-74